createdAt,value
2018-02-27T00:01:40.408Z,5.40
2018-02-27T00:04:08.647Z,6.13
2018-02-27T00:06:36.926Z,5.53
2018-02-27T00:09:05.212Z,5.40
2018-02-27T00:11:33.591Z,6.50
2018-02-27T00:14:01.840Z,5.27
2018-02-27T00:16:30.090Z,4.70
2018-02-27T00:18:58.444Z,4.97
2018-02-27T00:21:27.458Z,5.90
2018-02-27T00:23:55.718Z,4.83
2018-02-27T00:26:23.998Z,5.07
2018-02-27T00:28:52.291Z,5.17
2018-02-27T00:31:20.535Z,4.00
2018-02-27T00:33:49.571Z,4.60
2018-02-27T00:36:17.919Z,4.93
2018-02-27T00:38:46.183Z,4.77
2018-02-27T00:41:14.553Z,4.43
2018-02-27T00:43:43.588Z,4.80
2018-02-27T00:46:11.844Z,5.10
2018-02-27T00:48:40.173Z,4.20
2018-02-27T00:51:08.408Z,5.07
2018-02-27T00:53:36.663Z,5.00
2018-02-27T00:56:04.927Z,4.80
2018-02-27T00:58:33.187Z,5.20
2018-02-27T01:01:01.449Z,4.90
2018-02-27T01:03:29.697Z,4.93
2018-02-27T01:05:58.350Z,4.87
2018-02-27T01:08:27.803Z,6.13
2018-02-27T01:10:56.055Z,5.43
2018-02-27T01:13:24.331Z,5.07
2018-02-27T01:15:52.592Z,5.57
2018-02-27T01:18:20.856Z,5.03
2018-02-27T01:20:49.099Z,5.63
2018-02-27T01:23:17.452Z,5.90
2018-02-27T01:25:45.925Z,5.20
2018-02-27T01:28:14.358Z,5.80
2018-02-27T01:30:42.612Z,6.60
2018-02-27T01:33:10.859Z,6.33
2018-02-27T01:35:40.066Z,6.07
2018-02-27T01:38:08.342Z,5.73
2018-02-27T01:40:36.587Z,6.30
2018-02-27T01:43:04.839Z,5.63
2018-02-27T01:45:33.121Z,6.27
2018-02-27T01:48:01.377Z,5.53
2018-02-27T01:50:29.620Z,5.87
2018-02-27T01:52:58.738Z,7.30
2018-02-27T01:55:26.993Z,6.77
2018-02-27T01:57:56.044Z,6.03
2018-02-27T02:00:24.498Z,7.00
2018-02-27T02:02:52.952Z,6.70
2018-02-27T02:05:21.263Z,6.37
2018-02-27T02:07:49.535Z,5.83
2018-02-27T02:10:17.782Z,6.50
2018-02-27T02:12:49.776Z,6.67
2018-02-27T02:15:18.019Z,5.83
2018-02-27T02:17:46.299Z,5.80
2018-02-27T02:20:14.631Z,6.03
2018-02-27T02:22:42.883Z,6.87
2018-02-27T02:25:11.395Z,6.40
2018-02-27T02:27:39.639Z,5.63
2018-02-27T02:30:07.892Z,6.00
2018-02-27T02:32:36.146Z,5.40
2018-02-27T02:35:04.409Z,6.70
2018-02-27T02:37:33.516Z,5.90
2018-02-27T02:40:01.771Z,6.13
2018-02-27T02:42:30.780Z,5.73
2018-02-27T02:44:59.035Z,6.07
2018-02-27T02:47:28.048Z,6.37
2018-02-27T02:49:56.311Z,5.57
2018-02-27T02:52:25.326Z,6.40
2018-02-27T02:54:53.596Z,6.40
2018-02-27T02:57:21.854Z,6.63
2018-02-27T02:59:50.907Z,6.33
2018-02-27T03:02:19.172Z,5.77
2018-02-27T03:04:48.983Z,5.87
2018-02-27T03:07:17.270Z,6.20
2018-02-27T03:09:45.511Z,6.33
2018-02-27T03:12:13.771Z,6.53
2018-02-27T03:14:42.799Z,6.37
2018-02-27T03:17:11.067Z,6.10
2018-02-27T03:19:39.328Z,6.13
2018-02-27T03:22:07.598Z,5.83
2018-02-27T03:24:35.847Z,6.20
2018-02-27T03:27:04.847Z,6.20
2018-02-27T03:29:33.103Z,6.67
2018-02-27T03:32:02.122Z,6.87
2018-02-27T03:34:30.379Z,6.27
2018-02-27T03:36:59.503Z,7.10
2018-02-27T03:39:27.772Z,6.57
2018-02-27T03:41:56.144Z,6.60
2018-02-27T03:44:24.395Z,5.90
2018-02-27T03:46:52.633Z,6.70
2018-02-27T03:49:20.959Z,6.40
2018-02-27T03:51:49.999Z,5.83
2018-02-27T03:54:18.274Z,6.53
2018-02-27T03:56:46.515Z,6.67
2018-02-27T03:59:15.048Z,6.63
2018-02-27T04:01:43.307Z,6.37
2018-02-27T04:04:11.551Z,7.20
2018-02-27T04:06:39.795Z,6.23
2018-02-27T04:09:08.843Z,6.30
2018-02-27T04:11:37.086Z,6.33
2018-02-27T04:14:05.351Z,6.10
2018-02-27T04:16:33.606Z,6.60
2018-02-27T04:19:01.967Z,6.63
2018-02-27T04:21:30.194Z,7.03
2018-02-27T04:23:58.462Z,6.10
2018-02-27T04:26:26.743Z,6.53
2018-02-27T04:28:54.998Z,6.80
2018-02-27T04:31:23.307Z,6.47
2018-02-27T04:33:53.078Z,6.70
2018-02-27T04:36:21.538Z,6.83
2018-02-27T04:38:50.556Z,6.17
2018-02-27T04:41:18.828Z,6.43
2018-02-27T04:43:47.154Z,6.63
2018-02-27T04:46:15.428Z,6.40
2018-02-27T04:48:43.679Z,6.97
2018-02-27T04:51:11.955Z,6.40
2018-02-27T04:53:40.284Z,6.33
2018-02-27T04:56:09.316Z,7.63
2018-02-27T04:58:37.570Z,7.00
2018-02-27T05:01:05.838Z,6.80
2018-02-27T05:03:34.100Z,6.23
2018-02-27T05:06:02.371Z,6.90
2018-02-27T05:08:31.414Z,6.63
2018-02-27T05:10:59.813Z,6.20
2018-02-27T05:13:28.112Z,6.33
2018-02-27T05:15:57.132Z,6.93
2018-02-27T05:18:26.159Z,6.70
2018-02-27T05:20:54.574Z,7.20
2018-02-27T05:23:22.820Z,6.20
2018-02-27T05:25:51.077Z,6.43
2018-02-27T05:28:19.398Z,6.07
2018-02-27T05:30:47.892Z,5.97
2018-02-27T05:33:16.165Z,6.30
2018-02-27T05:35:45.207Z,5.70
2018-02-27T05:38:13.480Z,6.50
2018-02-27T05:40:42.083Z,5.93
2018-02-27T05:43:10.336Z,6.27
2018-02-27T05:45:38.600Z,4.80
2018-02-27T05:48:06.841Z,5.20
2018-02-27T05:50:35.909Z,5.60
2018-02-27T05:53:04.144Z,5.37
2018-02-27T05:55:32.409Z,5.50
2018-02-27T05:58:00.668Z,5.10
2018-02-27T06:00:29.736Z,6.10
2018-02-27T06:02:58.021Z,6.53
2018-02-27T06:05:27.062Z,4.70
2018-02-27T06:07:55.548Z,4.90
2018-02-27T06:10:23.815Z,5.63
2018-02-27T06:12:52.067Z,5.13
2018-02-27T06:15:20.341Z,5.30
2018-02-27T06:17:48.594Z,5.80
2018-02-27T06:20:17.731Z,5.07
2018-02-27T06:22:46.083Z,5.37
2018-02-27T06:25:14.279Z,6.03
2018-02-27T06:27:42.543Z,5.40
2018-02-27T06:30:10.803Z,5.90
2018-02-27T06:32:39.916Z,6.07
2018-02-27T06:35:08.417Z,5.70
2018-02-27T06:37:36.659Z,5.73
2018-02-27T06:40:05.763Z,6.20
2018-02-27T06:42:34.144Z,5.70
2018-02-27T06:45:02.412Z,5.07
2018-02-27T06:47:30.708Z,5.73
2018-02-27T06:49:58.967Z,5.37
2018-02-27T06:52:27.227Z,5.67
2018-02-27T06:54:55.506Z,6.37
2018-02-27T06:57:24.000Z,5.40
2018-02-27T06:59:52.249Z,6.77
2018-02-27T07:02:21.283Z,6.47
2018-02-27T07:04:49.688Z,6.63
2018-02-27T07:07:17.971Z,6.60
2018-02-27T07:09:47.086Z,7.07
2018-02-27T07:12:15.478Z,6.33
2018-02-27T07:14:43.741Z,6.17
2018-02-27T07:17:13.011Z,6.20
2018-02-27T07:19:41.400Z,6.23
2018-02-27T07:22:10.446Z,6.60
2018-02-27T07:24:38.742Z,6.27
2018-02-27T07:27:07.019Z,6.37
2018-02-27T07:29:35.305Z,6.00
2018-02-27T07:32:03.745Z,5.70
2018-02-27T07:34:32.010Z,6.13
2018-02-27T07:37:00.339Z,6.30
2018-02-27T07:39:29.402Z,5.73
2018-02-27T07:41:57.659Z,6.73
2018-02-27T07:44:25.958Z,5.47
2018-02-27T07:46:54.234Z,6.00
2018-02-27T07:49:22.637Z,6.50
2018-02-27T07:51:50.898Z,5.87
2018-02-27T07:54:19.168Z,6.23
2018-02-27T07:56:47.472Z,5.90
2018-02-27T07:59:15.877Z,7.20
2018-02-27T08:01:44.899Z,6.77
2018-02-27T08:04:13.201Z,6.30
2018-02-27T08:06:41.420Z,7.93
2018-02-27T08:09:09.666Z,6.53
2018-02-27T08:11:38.011Z,5.60
2018-02-27T08:14:06.258Z,6.50
2018-02-27T08:16:34.532Z,6.47
2018-02-27T08:19:02.815Z,5.87
2018-02-27T08:21:31.068Z,6.10
2018-02-27T08:23:59.315Z,6.60
2018-02-27T08:26:28.343Z,6.33
2018-02-27T08:28:56.649Z,5.93
2018-02-27T08:31:24.900Z,5.50
2018-02-27T08:33:53.183Z,7.20
2018-02-27T08:36:21.426Z,5.70
2018-02-27T08:38:49.779Z,6.03
2018-02-27T08:41:18.907Z,6.57
2018-02-27T08:43:47.173Z,5.77
2018-02-27T08:46:15.423Z,6.43
2018-02-27T08:48:44.500Z,5.13
2018-02-27T08:51:12.728Z,6.33
2018-02-27T08:53:41.883Z,6.13
2018-02-27T08:56:10.150Z,5.50
2018-02-27T08:58:38.411Z,4.83
2018-02-27T09:01:06.663Z,5.13
2018-02-27T09:03:34.936Z,4.93
2018-02-27T09:06:03.199Z,5.80
2018-02-27T09:08:31.471Z,4.80
2018-02-27T09:10:59.932Z,5.20
2018-02-27T09:13:28.212Z,5.60
2018-02-27T09:15:56.502Z,5.30
2018-02-27T09:18:25.498Z,5.40
2018-02-27T09:20:53.751Z,5.10
2018-02-27T09:23:22.022Z,4.43
2018-02-27T09:25:50.251Z,5.40
2018-02-27T09:28:18.514Z,4.80
2018-02-27T09:30:46.814Z,4.70
2018-02-27T09:33:15.346Z,3.80
2018-02-27T09:35:43.627Z,3.93
2018-02-27T09:38:11.990Z,3.60
2018-02-27T09:40:40.254Z,4.03
2018-02-27T09:43:09.280Z,4.27
2018-02-27T09:45:37.550Z,3.60
2018-02-27T09:48:05.797Z,3.37
2018-02-27T09:50:34.064Z,3.80
2018-02-27T09:53:03.183Z,3.30
2018-02-27T09:55:31.459Z,4.40
2018-02-27T09:57:59.703Z,4.47
2018-02-27T10:00:28.711Z,3.97
2018-02-27T10:02:57.012Z,3.87
2018-02-27T10:05:25.266Z,3.20
2018-02-27T10:07:53.522Z,4.20
2018-02-27T10:10:22.585Z,4.03
2018-02-27T10:12:50.877Z,4.07
2018-02-27T10:15:19.135Z,3.90
2018-02-27T10:17:47.408Z,2.97
2018-02-27T10:20:15.716Z,3.70
2018-02-27T10:22:44.782Z,3.33
2018-02-27T10:25:13.012Z,4.47
2018-02-27T10:27:41.384Z,3.53
2018-02-27T10:30:09.718Z,3.00
2018-02-27T10:32:37.948Z,4.27
2018-02-27T10:35:06.408Z,3.47
2018-02-27T10:37:35.415Z,3.87
2018-02-27T10:40:03.731Z,3.67
2018-02-27T10:42:32.007Z,4.40
2018-02-27T10:45:00.270Z,3.30
2018-02-27T10:47:28.543Z,2.80
2018-02-27T10:49:56.795Z,3.67
2018-02-27T10:52:25.072Z,3.03
2018-02-27T10:54:53.352Z,3.70
2018-02-27T10:57:21.643Z,3.30
2018-02-27T10:59:49.927Z,3.10
2018-02-27T11:02:18.147Z,3.43
2018-02-27T11:04:46.418Z,2.80
2018-02-27T11:07:14.670Z,3.27
2018-02-27T11:09:43.756Z,3.60
2018-02-27T11:12:11.999Z,3.10
2018-02-27T11:14:40.266Z,3.83
2018-02-27T11:17:08.506Z,3.50
2018-02-27T11:19:36.792Z,3.53
2018-02-27T11:22:05.047Z,3.47
2018-02-27T11:24:33.381Z,4.20
2018-02-27T11:27:01.647Z,4.07
2018-02-27T11:29:30.032Z,4.37
2018-02-27T11:31:58.367Z,3.83
2018-02-27T11:34:26.635Z,4.33
2018-02-27T11:36:55.743Z,4.87
2018-02-27T11:39:24.005Z,4.27
2018-02-27T11:41:53.018Z,4.30
2018-02-27T11:44:21.288Z,4.20
2018-02-27T11:52:32.955Z,3.90
2018-02-27T11:55:01.253Z,4.03
2018-02-27T11:57:30.324Z,3.83
2018-02-27T11:59:58.701Z,4.50
2018-02-27T12:02:27.075Z,4.40
2018-02-27T12:04:56.230Z,3.13
2018-02-27T12:07:24.518Z,3.83
2018-02-27T12:09:52.946Z,4.17
2018-02-27T12:12:22.054Z,4.20
2018-02-27T12:14:50.407Z,3.47
2018-02-27T12:17:18.644Z,4.03
2018-02-27T12:19:46.995Z,4.80
2018-02-27T12:22:16.168Z,4.20
2018-02-27T12:24:44.459Z,4.53
2018-02-27T12:27:13.448Z,3.70
2018-02-27T12:29:42.484Z,4.03
2018-02-27T12:32:10.726Z,3.67
2018-02-27T12:34:38.988Z,4.10
2018-02-27T12:37:08.009Z,4.70
2018-02-27T12:39:36.271Z,4.47
2018-02-27T12:42:04.543Z,4.87
2018-02-27T12:44:32.809Z,4.10
2018-02-27T12:47:01.079Z,4.17
2018-02-27T12:49:30.113Z,4.57
2018-02-27T12:51:58.423Z,4.50
2018-02-27T12:54:26.672Z,3.97
2018-02-27T12:56:54.994Z,4.60
2018-02-27T12:59:24.043Z,4.27
2018-02-27T13:01:52.322Z,5.17
2018-02-27T13:04:21.379Z,3.90
2018-02-27T13:06:49.645Z,4.50
2018-02-27T13:09:17.909Z,4.23
2018-02-27T13:11:46.214Z,4.70
2018-02-27T13:14:14.492Z,4.57
2018-02-27T13:16:42.760Z,4.83
2018-02-27T13:19:11.024Z,3.77
2018-02-27T13:21:40.067Z,4.57
2018-02-27T13:24:08.415Z,4.50
2018-02-27T13:26:36.663Z,4.80
2018-02-27T13:29:05.843Z,5.10
2018-02-27T13:31:34.112Z,5.20
2018-02-27T13:34:03.140Z,5.20
2018-02-27T13:36:31.395Z,5.53
2018-02-27T13:38:59.860Z,4.70
2018-02-27T13:41:28.128Z,5.17
2018-02-27T13:43:56.396Z,4.40
2018-02-27T13:46:24.657Z,4.63
2018-02-27T13:48:53.076Z,5.23
2018-02-27T13:51:21.339Z,4.63
2018-02-27T13:53:50.392Z,5.07
2018-02-27T13:56:18.725Z,5.77
2018-02-27T13:58:47.049Z,5.60
2018-02-27T14:01:15.322Z,5.20
2018-02-27T14:03:43.623Z,5.73
2018-02-27T14:06:12.672Z,5.93
2018-02-27T14:08:40.951Z,5.20
2018-02-27T14:11:09.240Z,5.13
2018-02-27T14:13:37.475Z,5.20
2018-02-27T14:16:05.739Z,5.10
2018-02-27T14:18:34.020Z,5.10
2018-02-27T14:21:02.388Z,5.27
2018-02-27T14:23:31.390Z,4.87
2018-02-27T14:25:59.661Z,5.03
2018-02-27T14:28:27.915Z,4.90
2018-02-27T14:30:57.101Z,5.53
2018-02-27T14:33:25.323Z,5.50
2018-02-27T14:35:53.873Z,4.97
2018-02-27T14:38:22.109Z,5.33
2018-02-27T14:40:50.413Z,4.50
2018-02-27T14:43:18.752Z,4.97
2018-02-27T14:45:47.164Z,4.63
2018-02-27T14:48:16.303Z,4.97
2018-02-27T14:50:44.662Z,4.10
2018-02-27T14:53:12.928Z,5.60
2018-02-27T14:55:41.921Z,5.13
2018-02-27T14:58:10.192Z,5.07
2018-02-27T15:00:39.261Z,4.97
2018-02-27T15:03:07.542Z,5.03
2018-02-27T15:05:36.575Z,4.90
2018-02-27T15:08:04.840Z,6.07
2018-02-27T15:10:33.099Z,8.57
2018-02-27T15:13:02.129Z,19.90
2018-02-27T15:15:30.510Z,8.80
2018-02-27T15:17:59.533Z,8.00
2018-02-27T15:20:27.788Z,5.10
2018-02-27T15:22:56.062Z,25.57
2018-02-27T15:25:24.351Z,11.07
2018-02-27T15:27:52.648Z,8.77
2018-02-27T15:30:20.964Z,7.87
2018-02-27T15:32:49.250Z,6.00
2018-02-27T15:35:17.546Z,7.93
2018-02-27T15:37:45.826Z,4.47
2018-02-27T15:40:14.235Z,5.27
2018-02-27T15:42:43.392Z,4.80
2018-02-27T15:45:11.746Z,4.83
2018-02-27T15:47:39.988Z,4.10
2018-02-27T15:50:09.020Z,10.70
2018-02-27T15:52:37.286Z,8.47
2018-02-27T15:55:05.557Z,18.73
2018-02-27T15:57:33.849Z,7.50
2018-02-27T16:00:02.218Z,10.73
2018-02-27T16:02:31.212Z,4.80
2018-02-27T16:04:59.455Z,6.57
2018-02-27T16:07:28.535Z,6.43
2018-02-27T16:09:56.791Z,7.03
2018-02-27T16:12:26.553Z,5.20
2018-02-27T16:14:54.823Z,7.30
2018-02-27T16:17:23.096Z,8.40
2018-02-27T16:19:51.367Z,10.70
2018-02-27T16:22:19.655Z,13.47
2018-02-27T16:24:47.918Z,9.67
2018-02-27T16:27:16.180Z,6.30
2018-02-27T16:29:45.205Z,6.80
2018-02-27T16:32:13.485Z,6.90
2018-02-27T16:34:41.850Z,9.90
2018-02-27T16:37:10.219Z,9.20
2018-02-27T16:39:38.564Z,9.83
2018-02-27T16:42:07.581Z,7.93
2018-02-27T16:44:35.847Z,7.23
2018-02-27T16:47:04.100Z,8.83
2018-02-27T16:49:33.212Z,7.53
2018-02-27T16:52:02.243Z,5.60
2018-02-27T16:54:31.292Z,5.50
2018-02-27T16:56:59.544Z,16.03
2018-02-27T16:59:28.955Z,18.43
2018-02-27T17:01:58.095Z,12.00
2018-02-27T17:04:26.435Z,7.40
2018-02-27T17:06:54.823Z,6.33
2018-02-27T17:09:23.858Z,5.60
2018-02-27T17:11:52.127Z,7.13
2018-02-27T17:14:20.386Z,8.77
2018-02-27T17:16:48.831Z,6.20
2018-02-27T17:19:17.895Z,11.40
2018-02-27T17:21:46.158Z,39.00
2018-02-27T17:24:14.470Z,29.00
2018-02-27T17:26:43.597Z,14.50
2018-02-27T17:29:11.846Z,12.13
2018-02-27T17:31:40.213Z,8.60
2018-02-27T17:34:09.131Z,20.23
2018-02-27T17:36:39.125Z,7.13
2018-02-27T17:39:08.175Z,5.27
2018-02-27T17:41:36.451Z,6.30
2018-02-27T17:44:04.838Z,5.13
2018-02-27T17:46:33.135Z,7.30
2018-02-27T17:49:02.201Z,4.27
2018-02-27T17:51:30.467Z,5.20
2018-02-27T17:53:58.711Z,5.47
2018-02-27T17:56:26.965Z,4.87
2018-02-27T17:58:56.002Z,5.90
2018-02-27T18:01:24.251Z,4.33
2018-02-27T18:03:52.524Z,5.50
2018-02-27T18:06:21.539Z,4.77
2018-02-27T18:08:49.838Z,5.50
2018-02-27T18:11:18.276Z,4.03
2018-02-27T18:13:47.332Z,4.53
2018-02-27T18:16:15.593Z,5.13
2018-02-27T18:18:43.861Z,5.53
2018-02-27T18:21:12.261Z,5.47
2018-02-27T18:23:40.635Z,5.47
2018-02-27T18:26:08.883Z,5.17
2018-02-27T18:28:37.258Z,5.20
2018-02-27T18:31:05.553Z,5.30
2018-02-27T18:33:33.811Z,5.73
2018-02-27T18:36:02.088Z,5.17
2018-02-27T18:38:30.381Z,5.40
2018-02-27T18:40:58.695Z,5.53
2018-02-27T18:43:27.724Z,5.37
2018-02-27T18:45:56.140Z,5.00
2018-02-27T18:48:24.419Z,6.90
2018-02-27T18:50:53.484Z,17.93
2018-02-27T18:53:21.779Z,23.57
2018-02-27T18:55:50.074Z,9.07
2018-02-27T18:58:19.097Z,9.23
2018-02-27T19:00:47.421Z,6.00
2018-02-27T19:03:16.019Z,5.23
2018-02-27T19:05:45.052Z,5.00
2018-02-27T19:08:13.356Z,5.00
2018-02-27T19:10:41.648Z,5.27
2018-02-27T19:13:10.019Z,5.23
2018-02-27T19:15:38.280Z,5.33
2018-02-27T19:18:06.590Z,5.53
2018-02-27T19:20:34.916Z,5.60
2018-02-27T19:23:03.305Z,5.83
2018-02-27T19:25:31.552Z,4.80
2018-02-27T19:27:59.871Z,5.10
2018-02-27T19:30:28.345Z,6.27
2018-02-27T19:32:56.620Z,4.87
2018-02-27T19:35:24.861Z,4.73
2018-02-27T19:37:53.267Z,4.63
2018-02-27T19:40:21.590Z,4.60
2018-02-27T19:42:50.772Z,4.83
2018-02-27T19:45:19.824Z,5.40
2018-02-27T19:47:48.165Z,5.67
2018-02-27T19:50:16.451Z,5.43
2018-02-27T19:52:44.764Z,5.53
2018-02-27T19:55:13.226Z,5.80
2018-02-27T19:57:41.513Z,6.30
2018-02-27T20:00:09.871Z,6.00
2018-02-27T20:02:38.286Z,6.23
2018-02-27T20:05:08.077Z,6.00
2018-02-27T20:07:36.327Z,6.43
2018-02-27T20:10:04.714Z,6.60
2018-02-27T20:12:32.947Z,6.23
2018-02-27T20:15:03.597Z,5.93
2018-02-27T20:17:32.102Z,6.13
2018-02-27T20:20:00.392Z,5.47
2018-02-27T20:22:28.728Z,6.20
2018-02-27T20:24:57.065Z,5.87
2018-02-27T20:27:25.369Z,5.63
2018-02-27T20:29:54.395Z,6.00
2018-02-27T20:32:22.651Z,5.70
2018-02-27T20:34:50.931Z,5.70
2018-02-27T20:37:19.331Z,5.43
2018-02-27T20:39:47.600Z,6.37
2018-02-27T20:42:15.897Z,5.47
2018-02-27T20:44:44.184Z,5.87
2018-02-27T20:47:13.265Z,6.10
2018-02-27T20:49:41.701Z,6.50
2018-02-27T20:52:10.548Z,7.10
2018-02-27T20:54:38.826Z,7.30
2018-02-27T20:57:07.156Z,7.63
2018-02-27T20:59:35.437Z,7.27
2018-02-27T21:02:03.752Z,9.03
2018-02-27T21:04:32.005Z,8.23
2018-02-27T21:07:01.113Z,8.17
2018-02-27T21:09:29.495Z,8.73
2018-02-27T21:11:58.609Z,8.87
2018-02-27T21:14:27.659Z,9.17
2018-02-27T21:16:55.939Z,9.23
2018-02-27T21:19:24.228Z,8.80
2018-02-27T21:21:52.520Z,8.37
2018-02-27T21:24:21.514Z,9.87
2018-02-27T21:26:49.741Z,10.00
2018-02-27T21:29:18.859Z,9.57
2018-02-27T21:31:47.136Z,10.20
2018-02-27T21:34:16.927Z,9.27
2018-02-27T21:36:45.433Z,9.53
2018-02-27T21:39:13.708Z,9.67
2018-02-27T21:41:42.769Z,9.77
2018-02-27T21:44:11.040Z,9.53
2018-02-27T21:46:39.278Z,9.20
2018-02-27T21:49:07.640Z,9.43
2018-02-27T21:51:36.076Z,8.73
2018-02-27T21:54:04.448Z,9.90
2018-02-27T21:56:32.876Z,9.10
2018-02-27T21:59:01.956Z,10.83
2018-02-27T22:01:31.034Z,10.30
2018-02-27T22:03:59.297Z,10.33
2018-02-27T22:06:33.274Z,9.60
2018-02-27T22:09:01.520Z,9.87
2018-02-27T22:11:30.704Z,10.60
2018-02-27T22:13:59.167Z,10.77
2018-02-27T22:16:27.560Z,10.97
2018-02-27T22:18:55.871Z,10.93
2018-02-27T22:21:24.905Z,10.23
2018-02-27T22:23:53.176Z,10.27
2018-02-27T22:26:21.510Z,11.33
2018-02-27T22:28:49.776Z,11.17
2018-02-27T22:31:18.044Z,10.87
2018-02-27T22:33:47.216Z,10.70
2018-02-27T22:36:15.480Z,10.83
2018-02-27T22:38:43.744Z,12.03
2018-02-27T22:41:12.182Z,11.90
2018-02-27T22:43:40.483Z,11.40
2018-02-27T22:46:08.738Z,11.93
2018-02-27T22:48:37.029Z,12.40
2018-02-27T22:51:05.382Z,12.00
2018-02-27T22:53:33.663Z,13.77
2018-02-27T22:56:01.941Z,11.97
2018-02-27T22:58:30.268Z,11.93
2018-02-27T23:00:58.914Z,12.37
2018-02-27T23:03:27.236Z,13.47
2018-02-27T23:05:55.475Z,13.00
2018-02-27T23:08:23.884Z,12.63
2018-02-27T23:10:52.115Z,12.87
2018-02-27T23:13:20.601Z,13.17
2018-02-27T23:15:48.855Z,13.43
2018-02-27T23:18:17.150Z,14.37
2018-02-27T23:20:45.456Z,14.67
2018-02-27T23:23:13.711Z,14.13
2018-02-27T23:25:46.226Z,13.53
2018-02-27T23:28:16.152Z,13.87
2018-02-27T23:30:45.341Z,14.07
2018-02-27T23:33:14.354Z,13.30
2018-02-27T23:35:42.861Z,14.10
2018-02-27T23:38:11.132Z,13.93
2018-02-27T23:40:39.404Z,14.30
2018-02-27T23:43:07.672Z,13.40
2018-02-27T23:45:36.034Z,13.90
2018-02-27T23:48:04.408Z,14.27
2018-02-27T23:50:32.818Z,14.97
2018-02-27T23:53:01.209Z,15.50
2018-02-27T23:55:29.557Z,14.93
2018-02-27T23:57:57.922Z,14.07
